Aviation Digital Data Service (ADDS)

Output produced by METARs form (1205 UTC 26 March 2019)
found at http://www.aviationweather.gov/metar/data/
 
METAR text: MTPP 261200Z 10004KT 9000 FEW018 SCT060 24/23 Q1013 A2992
Conditions at: MTPP (PORT-AU-PRINCE , HT) observed 1200 UTC 26 March 2019
Temperature: 24.0°C (75°F)
Dewpoint: 23.0°C (73°F) [RH = 94%]
Pressure (altimeter): 29.91 inches Hg (1013.0 mb)
Winds: from the E (100 degrees) at 5 MPH (4 knots; 2.1 m/s)
Visibility: 6 miles ( 9 km)
Ceiling: at least 12,000 feet AGL
Clouds: few clouds at 1800 feet AGL
scattered clouds at 6000 feet AGL
Weather: no significant weather observed at this time

METAR text: MTPP 261100Z 10004KT 8000 FEW018 SCT060 23/22 Q1012 A2909
Conditions at: MTPP (PORT-AU-PRINCE , HT) observed 1100 UTC 26 March 2019
Temperature: 23.0°C (73°F)
Dewpoint: 22.0°C (72°F) [RH = 94%]
Pressure (altimeter): 29.88 inches Hg (1012.0 mb)
Winds: from the E (100 degrees) at 5 MPH (4 knots; 2.1 m/s)
Visibility: 5 miles ( 8 km)
Ceiling: at least 12,000 feet AGL
Clouds: few clouds at 1800 feet AGL
scattered clouds at 6000 feet AGL
Weather: no significant weather observed at this time

METAR text: MTPP 261000Z 110014KT 8000 FEW018 BKN060 24/23 Q1012 A2989
Conditions at: MTPP (PORT-AU-PRINCE , HT) observed 1000 UTC 26 March 2019
Temperature: 24.0°C (75°F)
Dewpoint: 23.0°C (73°F) [RH = 94%]
Pressure (altimeter): 29.88 inches Hg (1012.0 mb)
Winds: from the ESE (110 degrees) at 16 MPH (14 knots; 7.2 m/s)
Visibility: 5 miles ( 8 km)
Ceiling: 6000 feet AGL
Clouds: few clouds at 1800 feet AGL
broken clouds at 6000 feet AGL
Weather: no significant weather observed at this time

METAR text: MTPP 260000Z 30012KT 9000 FEW025 SCT050 28/21 Q1012 A2989
Conditions at: MTPP (PORT-AU-PRINCE , HT) observed 0000 UTC 26 March 2019
Temperature: 28.0°C (82°F)
Dewpoint: 21.0°C (70°F) [RH = 66%]
Pressure (altimeter): 29.88 inches Hg (1012.0 mb)
Winds: from the WNW (300 degrees) at 14 MPH (12 knots; 6.2 m/s)
Visibility: 6 miles ( 9 km)
Ceiling: at least 12,000 feet AGL
Clouds: few clouds at 2500 feet AGL
scattered clouds at 5000 feet AGL
Weather: no significant weather observed at this time

METAR text: MTPP 252300Z 29010KT 9000 FEW025 28/21 Q1011 A2988
Conditions at: MTPP (PORT-AU-PRINCE , HT) observed 2300 UTC 25 March 2019
Temperature: 28.0°C (82°F)
Dewpoint: 21.0°C (70°F) [RH = 66%]
Pressure (altimeter): 29.85 inches Hg (1011.0 mb)
Winds: from the WNW (290 degrees) at 12 MPH (10 knots; 5.1 m/s)
Visibility: 6 miles ( 9 km)
Ceiling: at least 12,000 feet AGL
Clouds: few clouds at 2500 feet AGL
Weather: no significant weather observed at this time

METAR text: MTPP 252200Z 31008KT 9999 FEW026 30/20 Q1011 A2987
Conditions at: MTPP (PORT-AU-PRINCE , HT) observed 2200 UTC 25 March 2019
Temperature: 30.0°C (86°F)
Dewpoint: 20.0°C (68°F) [RH = 55%]
Pressure (altimeter): 29.85 inches Hg (1011.0 mb)
Winds: from the NW (310 degrees) at 9 MPH (8 knots; 4.1 m/s)
Visibility: 6 or more miles (10+ km)
Ceiling: at least 12,000 feet AGL
Clouds: few clouds at 2600 feet AGL
Weather: no significant weather observed at this time

METAR text: MTPP 252100Z 31009KT 9999 FEW027 31/20 Q1011 A2987
Conditions at: MTPP (PORT-AU-PRINCE , HT) observed 2100 UTC 25 March 2019
Temperature: 31.0°C (88°F)
Dewpoint: 20.0°C (68°F) [RH = 52%]
Pressure (altimeter): 29.85 inches Hg (1011.0 mb)
Winds: from the NW (310 degrees) at 10 MPH (9 knots; 4.6 m/s)
Visibility: 6 or more miles (10+ km)
Ceiling: at least 12,000 feet AGL
Clouds: few clouds at 2700 feet AGL
Weather: no significant weather observed at this time

METAR text: MTPP 252000Z 29010KT 9999 SCT027 31/19 Q1011 A2987
Conditions at: MTPP (PORT-AU-PRINCE , HT) observed 2000 UTC 25 March 2019
Temperature: 31.0°C (88°F)
Dewpoint: 19.0°C (66°F) [RH = 49%]
Pressure (altimeter): 29.85 inches Hg (1011.0 mb)
Winds: from the WNW (290 degrees) at 12 MPH (10 knots; 5.1 m/s)
Visibility: 6 or more miles (10+ km)
Ceiling: at least 12,000 feet AGL
Clouds: scattered clouds at 2700 feet AGL
Weather: no significant weather observed at this time

METAR text: MTPP 251800Z 10004KT 9999 FEW028 32/19 Q1013 A2992
Conditions at: MTPP (PORT-AU-PRINCE , HT) observed 1800 UTC 25 March 2019
Temperature: 32.0°C (90°F)
Dewpoint: 19.0°C (66°F) [RH = 46%]
Pressure (altimeter): 29.91 inches Hg (1013.0 mb)
Winds: from the E (100 degrees) at 5 MPH (4 knots; 2.1 m/s)
Visibility: 6 or more miles (10+ km)
Ceiling: at least 12,000 feet AGL
Clouds: few clouds at 2800 feet AGL
Weather: no significant weather observed at this time

METAR text: MTPP 251700Z 09006KT 9999 FEW027 31/20 Q1014 A2995
Conditions at: MTPP (PORT-AU-PRINCE , HT) observed 1700 UTC 25 March 2019
Temperature: 31.0°C (88°F)
Dewpoint: 20.0°C (68°F) [RH = 52%]
Pressure (altimeter): 29.94 inches Hg (1014.0 mb)
Winds: from the E (90 degrees) at 7 MPH (6 knots; 3.1 m/s)
Visibility: 6 or more miles (10+ km)
Ceiling: at least 12,000 feet AGL
Clouds: few clouds at 2700 feet AGL
Weather: no significant weather observed at this time

METAR text: MTPP 251600Z 07007KT 9999 FEW025 SCT060 29/20 Q1015 A2997
Conditions at: MTPP (PORT-AU-PRINCE , HT) observed 1600 UTC 25 March 2019
Temperature: 29.0°C (84°F)
Dewpoint: 20.0°C (68°F) [RH = 58%]
Pressure (altimeter): 29.97 inches Hg (1015.0 mb)
Winds: from the ENE (70 degrees) at 8 MPH (7 knots; 3.6 m/s)
Visibility: 6 or more miles (10+ km)
Ceiling: at least 12,000 feet AGL
Clouds: few clouds at 2500 feet AGL
scattered clouds at 6000 feet AGL
Weather: no significant weather observed at this time

METAR text: MTPP 251500Z 09007KT 9999 SCT025 BKN060 27/21 Q1015 A2999
Conditions at: MTPP (PORT-AU-PRINCE , HT) observed 1500 UTC 25 March 2019
Temperature: 27.0°C (81°F)
Dewpoint: 21.0°C (70°F) [RH = 70%]
Pressure (altimeter): 29.97 inches Hg (1015.0 mb)
Winds: from the E (90 degrees) at 8 MPH (7 knots; 3.6 m/s)
Visibility: 6 or more miles (10+ km)
Ceiling: 6000 feet AGL
Clouds: scattered clouds at 2500 feet AGL
broken clouds at 6000 feet AGL
Weather: no significant weather observed at this time

METAR text: MTPP 251400Z 12004KT 9000 SCT022 BKN050 25/21 Q1015 A2999
Conditions at: MTPP (PORT-AU-PRINCE , HT) observed 1400 UTC 25 March 2019
Temperature: 25.0°C (77°F)
Dewpoint: 21.0°C (70°F) [RH = 79%]
Pressure (altimeter): 29.97 inches Hg (1015.0 mb)
Winds: from the ESE (120 degrees) at 5 MPH (4 knots; 2.1 m/s)
Visibility: 6 miles ( 9 km)
Ceiling: 5000 feet AGL
Clouds: scattered clouds at 2200 feet AGL
broken clouds at 5000 feet AGL
Weather: no significant weather observed at this time

METAR text: MTPP 251300Z 14005KT 9000 SCT020 BKN050 25/21 Q1015 A2999
Conditions at: MTPP (PORT-AU-PRINCE , HT) observed 1300 UTC 25 March 2019
Temperature: 25.0°C (77°F)
Dewpoint: 21.0°C (70°F) [RH = 79%]
Pressure (altimeter): 29.97 inches Hg (1015.0 mb)
Winds: from the SE (140 degrees) at 6 MPH (5 knots; 2.6 m/s)
Visibility: 6 miles ( 9 km)
Ceiling: 5000 feet AGL
Clouds: scattered clouds at 2000 feet AGL
broken clouds at 5000 feet AGL
Weather: no significant weather observed at this time

METAR text: MTPP 251200Z 11003KT 9000 SCT018 BKN050 24/21 Q1014 A2997
Conditions at: MTPP (PORT-AU-PRINCE , HT) observed 1200 UTC 25 March 2019
Temperature: 24.0°C (75°F)
Dewpoint: 21.0°C (70°F) [RH = 83%]
Pressure (altimeter): 29.94 inches Hg (1014.0 mb)
Winds: from the ESE (110 degrees) at 3 MPH (3 knots; 1.5 m/s)
Visibility: 6 miles ( 9 km)
Ceiling: 5000 feet AGL
Clouds: scattered clouds at 1800 feet AGL
broken clouds at 5000 feet AGL
Weather: no significant weather observed at this time

METAR text: MTPP 251100Z VRB02KT 8000 DZ SCT018 BKN045 24/22 Q1014 A2996
Conditions at: MTPP (PORT-AU-PRINCE , HT) observed 1100 UTC 25 March 2019
Temperature: 24.0°C (75°F)
Dewpoint: 22.0°C (72°F) [RH = 89%]
Pressure (altimeter): 29.94 inches Hg (1014.0 mb)
Winds: variable direction winds at 2 MPH (2 knots; 1.0 m/s)
Visibility: 5 miles ( 8 km)
Ceiling: 4500 feet AGL
Clouds: scattered clouds at 1800 feet AGL
broken clouds at 4500 feet AGL
Weather: DZ  (moderate drizzle)

METAR text: MTPP 251000Z VRB01KT 8000 DZ SCT018 BKN040 24/21 Q1013 A2995
Conditions at: MTPP (PORT-AU-PRINCE , HT) observed 1000 UTC 25 March 2019
Temperature: 24.0°C (75°F)
Dewpoint: 21.0°C (70°F) [RH = 83%]
Pressure (altimeter): 29.91 inches Hg (1013.0 mb)
Winds: variable direction winds at 1 MPH (1 knots; 0.5 m/s)
Visibility: 5 miles ( 8 km)
Ceiling: 4000 feet AGL
Clouds: scattered clouds at 1800 feet AGL
broken clouds at 4000 feet AGL
Weather: DZ  (moderate drizzle)

Forecast for: MTPP (PORT-AU-PRINCE , HT)
Text: TAF MTPP 261120Z 2612/2712 10004KT 8000 FEW018
Forecast period: 1200 to 1800 UTC 26 March 2019
Forecast type: FROM: standard forecast or significant change
Winds: from the E (100 degrees) at 5 MPH (4 knots; 2.1 m/s)
Visibility: 5 miles (8 km)
Ceiling: at least 12,000 feet AGL
Clouds: few clouds at 1800 feet AGL
Weather: no significant weather forecast for this period
Text: BECMG 2618/2622 30014KT
Forecast period: 1800 UTC 26 March 2019 to 1000 UTC 27 March 2019
Forecast type: BECOMING: Conditions expected to become as follows by 2200 UTC 26 March 2019
Winds: from the WNW (300 degrees) at 16 MPH (14 knots; 7.2 m/s)
Visibility: 5 miles (8 km)
Ceiling: at least 12,000 feet AGL
Clouds: few clouds at 1800 feet AGL
Weather: no significant weather forecast for this period
Text: PROB40
Forecast period: 0300 to 0900 UTC 27 March 2019
Forecast type: TEMPORARY: The following changes expected for less than half the time period
Visibility: 2.49 miles (4.01 km)
Ceiling: 3000 feet AGL
Clouds: scattered clouds at 1600 feet AGL
broken clouds at 3000 feet AGL
Weather: TSRA  (rain associated with thunderstorm(s))
Text: TEMPO 2703/2709 4000 TSRA SCT016CB BKN030
Forecast period: 1000 to 1200 UTC 27 March 2019
Forecast type: BECOMING: Conditions expected to become as follows by 1200 UTC 27 March 2019
Winds: from the E (100 degrees) at 12 MPH (10 knots; 5.1 m/s)
Visibility: 5 miles (8 km)
Ceiling: at least 12,000 feet AGL
Clouds: few clouds at 2000 feet AGL
Weather: no significant weather forecast for this period